sensor_id;sensor_type;location;lat;lon;timestamp;pressure;altitude;pressure_sealevel;temperature;humidity
79067;BME280;68470;50.224;14.348;2023-03-08T00:00:19;97656.94;;;1.87;61.00
79067;BME280;68470;50.224;14.348;2023-03-08T00:03:06;97666.88;;;1.81;61.34
79067;BME280;68470;50.224;14.348;2023-03-08T00:05:32;97646.66;;;1.89;61.03
79067;BME280;68470;50.224;14.348;2023-03-08T00:07:57;97664.06;;;1.93;61.43
79067;BME280;68470;50.224;14.348;2023-03-08T00:10:23;97657.81;;;1.70;62.72
79067;BME280;68470;50.224;14.348;2023-03-08T00:12:49;97666.72;;;1.88;61.86
79067;BME280;68470;50.224;14.348;2023-03-08T00:15:15;97677.56;;;1.88;62.79
79067;BME280;68470;50.224;14.348;2023-03-08T00:17:41;97675.72;;;1.93;62.42
79067;BME280;68470;50.224;14.348;2023-03-08T00:20:08;97684.94;;;2.14;62.11
79067;BME280;68470;50.224;14.348;2023-03-08T00:22:39;97689.38;;;2.20;62.20
79067;BME280;68470;50.224;14.348;2023-03-08T00:25:07;97690.38;;;2.36;61.69
79067;BME280;68470;50.224;14.348;2023-03-08T00:27:34;97688.97;;;2.55;61.48
79067;BME280;68470;50.224;14.348;2023-03-08T00:30:02;97680.66;;;2.67;61.15
79067;BME280;68470;50.224;14.348;2023-03-08T00:32:28;97698.94;;;2.71;61.37
79067;BME280;68470;50.224;14.348;2023-03-08T00:34:54;97693.78;;;2.75;61.43
79067;BME280;68470;50.224;14.348;2023-03-08T00:37:20;97703.31;;;2.78;61.46
79067;BME280;68470;50.224;14.348;2023-03-08T00:39:50;97701.16;;;2.80;62.01
79067;BME280;68470;50.224;14.348;2023-03-08T00:42:17;97697.38;;;2.81;62.60
79067;BME280;68470;50.224;14.348;2023-03-08T00:44:44;97685.38;;;2.77;62.49
79067;BME280;68470;50.224;14.348;2023-03-08T00:47:09;97689.19;;;2.76;62.50
79067;BME280;68470;50.224;14.348;2023-03-08T00:49:35;97700.16;;;2.86;63.08
79067;BME280;68470;50.224;14.348;2023-03-08T00:52:01;97701.81;;;2.87;63.33
79067;BME280;68470;50.224;14.348;2023-03-08T00:54:28;97714.31;;;2.88;63.30
79067;BME280;68470;50.224;14.348;2023-03-08T00:56:54;97707.84;;;2.94;62.73
79067;BME280;68470;50.224;14.348;2023-03-08T00:59:20;97704.00;;;2.90;62.97
79067;BME280;68470;50.224;14.348;2023-03-08T01:01:46;97707.78;;;2.89;63.19
79067;BME280;68470;50.224;14.348;2023-03-08T01:04:12;97701.72;;;2.82;62.99
79067;BME280;68470;50.224;14.348;2023-03-08T01:06:39;97722.13;;;2.84;63.69
79067;BME280;68470;50.224;14.348;2023-03-08T01:09:05;97723.75;;;2.85;63.42
79067;BME280;68470;50.224;14.348;2023-03-08T01:11:31;97720.56;;;2.88;64.21
79067;BME280;68470;50.224;14.348;2023-03-08T01:14:00;97715.81;;;2.79;64.55
79067;BME280;68470;50.224;14.348;2023-03-08T01:16:28;97721.91;;;2.86;64.94
79067;BME280;68470;50.224;14.348;2023-03-08T01:18:56;97735.50;;;2.86;65.34
79067;BME280;68470;50.224;14.348;2023-03-08T01:21:22;97734.06;;;2.83;65.78
79067;BME280;68470;50.224;14.348;2023-03-08T01:23:49;97742.78;;;2.85;65.72
79067;BME280;68470;50.224;14.348;2023-03-08T01:26:18;97742.78;;;2.85;66.60
79067;BME280;68470;50.224;14.348;2023-03-08T01:28:45;97743.88;;;2.84;66.06
79067;BME280;68470;50.224;14.348;2023-03-08T01:31:17;97723.47;;;2.82;66.03
79067;BME280;68470;50.224;14.348;2023-03-08T01:33:43;97745.75;;;2.84;66.33
79067;BME280;68470;50.224;14.348;2023-03-08T01:36:12;97755.31;;;2.86;67.22
79067;BME280;68470;50.224;14.348;2023-03-08T01:38:40;97740.31;;;2.84;67.85
79067;BME280;68470;50.224;14.348;2023-03-08T01:41:13;97740.59;;;2.82;69.52
79067;BME280;68470;50.224;14.348;2023-03-08T01:43:39;97745.75;;;2.84;69.79
79067;BME280;68470;50.224;14.348;2023-03-08T01:49:52;97734.28;;;2.77;71.19
79067;BME280;68470;50.224;14.348;2023-03-08T01:52:27;97747.31;;;2.75;71.77
79067;BME280;68470;50.224;14.348;2023-03-08T01:55:07;97745.94;;;2.72;71.30
79067;BME280;68470;50.224;14.348;2023-03-08T01:57:40;97747.56;;;2.73;71.43
79067;BME280;68470;50.224;14.348;2023-03-08T02:00:16;97743.50;;;2.76;71.26
79067;BME280;68470;50.224;14.348;2023-03-08T02:03:00;97744.03;;;2.72;71.78
79067;BME280;68470;50.224;14.348;2023-03-08T02:05:27;97752.44;;;2.71;72.13
79067;BME280;68470;50.224;14.348;2023-03-08T02:07:53;97765.22;;;2.70;71.90
79067;BME280;68470;50.224;14.348;2023-03-08T02:10:19;97755.91;;;2.66;72.04
79067;BME280;68470;50.224;14.348;2023-03-08T02:12:46;97739.75;;;2.55;72.27
79067;BME280;68470;50.224;14.348;2023-03-08T02:15:16;97761.28;;;2.61;72.86
79067;BME280;68470;50.224;14.348;2023-03-08T02:17:42;97768.31;;;2.57;73.27
79067;BME280;68470;50.224;14.348;2023-03-08T02:20:16;97772.41;;;2.60;73.11
79067;BME280;68470;50.224;14.348;2023-03-08T02:22:43;97763.88;;;2.51;72.57
79067;BME280;68470;50.224;14.348;2023-03-08T02:25:17;97765.72;;;2.46;72.43
79067;BME280;68470;50.224;14.348;2023-03-08T02:27:44;97780.66;;;2.48;71.65
79067;BME280;68470;50.224;14.348;2023-03-08T02:30:12;97766.72;;;2.39;71.93
79067;BME280;68470;50.224;14.348;2023-03-08T02:32:39;97773.84;;;2.46;71.62
79067;BME280;68470;50.224;14.348;2023-03-08T02:35:05;97777.38;;;2.46;71.65
79067;BME280;68470;50.224;14.348;2023-03-08T02:37:32;97776.78;;;2.39;72.93
79067;BME280;68470;50.224;14.348;2023-03-08T02:39:58;97784.81;;;2.34;72.34
79067;BME280;68470;50.224;14.348;2023-03-08T02:42:24;97778.78;;;2.27;73.08
79067;BME280;68470;50.224;14.348;2023-03-08T02:44:50;97785.28;;;2.26;73.08
79067;BME280;68470;50.224;14.348;2023-03-08T02:47:16;97773.44;;;2.15;73.58
79067;BME280;68470;50.224;14.348;2023-03-08T02:49:41;97784.38;;;2.20;73.48
79067;BME280;68470;50.224;14.348;2023-03-08T02:52:07;97773.69;;;2.14;73.58
79067;BME280;68470;50.224;14.348;2023-03-08T02:54:33;97789.41;;;2.11;73.81
79067;BME280;68470;50.224;14.348;2023-03-08T02:56:59;97771.34;;;2.00;73.67
79067;BME280;68470;50.224;14.348;2023-03-08T02:59:25;97771.94;;;2.02;74.00
79067;BME280;68470;50.224;14.348;2023-03-08T03:01:51;97780.38;;;2.06;73.41
79067;BME280;68470;50.224;14.348;2023-03-08T03:04:17;97786.97;;;1.93;73.15
79067;BME280;68470;50.224;14.348;2023-03-08T03:06:43;97787.72;;;1.89;74.48
79067;BME280;68470;50.224;14.348;2023-03-08T03:09:09;97787.72;;;1.89;74.55
79067;BME280;68470;50.224;14.348;2023-03-08T03:11:36;97775.72;;;1.85;74.58
79067;BME280;68470;50.224;14.348;2023-03-08T03:14:01;97771.13;;;1.85;73.89
79067;BME280;68470;50.224;14.348;2023-03-08T03:16:27;97773.25;;;1.83;74.52
79067;BME280;68470;50.224;14.348;2023-03-08T03:18:54;97779.75;;;1.82;74.63
79067;BME280;68470;50.224;14.348;2023-03-08T03:21:21;97777.59;;;1.84;74.76
79067;BME280;68470;50.224;14.348;2023-03-08T03:23:47;97770.88;;;1.87;73.97
79067;BME280;68470;50.224;14.348;2023-03-08T03:26:16;97773.59;;;1.87;73.98
79067;BME280;68470;50.224;14.348;2023-03-08T03:28:43;97796.69;;;1.89;73.65
79067;BME280;68470;50.224;14.348;2023-03-08T03:31:16;97799.91;;;1.86;74.36
79067;BME280;68470;50.224;14.348;2023-03-08T03:33:43;97782.13;;;1.78;74.58
79067;BME280;68470;50.224;14.348;2023-03-08T03:36:11;97807.38;;;1.79;74.67
79067;BME280;68470;50.224;14.348;2023-03-08T03:38:37;97802.69;;;1.74;75.28
79067;BME280;68470;50.224;14.348;2023-03-08T03:41:05;97813.63;;;1.79;74.75
79067;BME280;68470;50.224;14.348;2023-03-08T03:43:32;97807.31;;;1.74;75.43
79067;BME280;68470;50.224;14.348;2023-03-08T03:46:00;97821.00;;;1.84;75.89
79067;BME280;68470;50.224;14.348;2023-03-08T03:48:27;97808.44;;;1.78;75.76
79067;BME280;68470;50.224;14.348;2023-03-08T03:51:04;97817.47;;;1.84;75.76
79067;BME280;68470;50.224;14.348;2023-03-08T03:53:32;97809.94;;;1.69;75.80
79067;BME280;68470;50.224;14.348;2023-03-08T03:56:07;97819.13;;;1.68;75.98
79067;BME280;68470;50.224;14.348;2023-03-08T03:58:33;97815.84;;;1.66;76.77
79067;BME280;68470;50.224;14.348;2023-03-08T04:00:59;97818.16;;;1.57;77.34
79067;BME280;68470;50.224;14.348;2023-03-08T04:03:26;97837.88;;;1.53;78.04
79067;BME280;68470;50.224;14.348;2023-03-08T04:05:52;97830.47;;;1.48;77.68
79067;BME280;68470;50.224;14.348;2023-03-08T04:08:17;97819.63;;;1.48;77.95
79067;BME280;68470;50.224;14.348;2023-03-08T04:10:43;97820.59;;;1.42;78.66
79067;BME280;68470;50.224;14.348;2023-03-08T04:13:10;97833.41;;;1.46;78.21
79067;BME280;68470;50.224;14.348;2023-03-08T04:15:37;97832.59;;;1.46;78.44
79067;BME280;68470;50.224;14.348;2023-03-08T04:18:02;97827.91;;;1.41;78.41
79067;BME280;68470;50.224;14.348;2023-03-08T04:20:28;97830.13;;;1.44;77.71
79067;BME280;68470;50.224;14.348;2023-03-08T04:22:54;97841.31;;;1.48;78.51
79067;BME280;68470;50.224;14.348;2023-03-08T04:25:20;97827.66;;;1.43;80.29
79067;BME280;68470;50.224;14.348;2023-03-08T04:27:46;97827.75;;;1.48;79.50
79067;BME280;68470;50.224;14.348;2023-03-08T04:30:12;97827.03;;;1.53;78.79
79067;BME280;68470;50.224;14.348;2023-03-08T04:32:38;97836.25;;;1.52;79.50
79067;BME280;68470;50.224;14.348;2023-03-08T04:35:04;97826.34;;;1.45;79.57
79067;BME280;68470;50.224;14.348;2023-03-08T04:37:30;97821.63;;;1.53;79.40
79067;BME280;68470;50.224;14.348;2023-03-08T04:39:56;97807.56;;;1.56;79.00
79067;BME280;68470;50.224;14.348;2023-03-08T04:42:22;97818.47;;;1.61;79.19
79067;BME280;68470;50.224;14.348;2023-03-08T04:44:48;97812.78;;;1.45;79.19
79067;BME280;68470;50.224;14.348;2023-03-08T04:47:13;97817.72;;;1.48;79.41
79067;BME280;68470;50.224;14.348;2023-03-08T04:49:39;97819.63;;;1.48;80.19
79067;BME280;68470;50.224;14.348;2023-03-08T04:52:05;97831.38;;;1.37;80.57
79067;BME280;68470;50.224;14.348;2023-03-08T04:54:31;97822.88;;;1.33;79.92
79067;BME280;68470;50.224;14.348;2023-03-08T04:56:57;97831.78;;;1.45;79.42
79067;BME280;68470;50.224;14.348;2023-03-08T04:59:23;97826.34;;;1.45;79.88
79067;BME280;68470;50.224;14.348;2023-03-08T05:01:49;97815.50;;;1.45;79.00
79067;BME280;68470;50.224;14.348;2023-03-08T05:04:15;97818.47;;;1.44;79.02
79067;BME280;68470;50.224;14.348;2023-03-08T05:06:41;97831.13;;;1.38;79.84
79067;BME280;68470;50.224;14.348;2023-03-08T05:09:07;97821.44;;;1.14;80.96
79067;BME280;68470;50.224;14.348;2023-03-08T05:11:32;97819.94;;;1.35;79.96
79067;BME280;68470;50.224;14.348;2023-03-08T05:13:59;97830.13;;;1.44;79.13
79067;BME280;68470;50.224;14.348;2023-03-08T05:16:25;97835.22;;;1.41;79.76
79067;BME280;68470;50.224;14.348;2023-03-08T05:18:52;97809.84;;;1.47;78.79
79067;BME280;68470;50.224;14.348;2023-03-08T05:21:19;97823.72;;;1.50;78.74
79067;BME280;68470;50.224;14.348;2023-03-08T05:23:46;97828.50;;;1.43;79.62
79067;BME280;68470;50.224;14.348;2023-03-08T05:26:14;97832.25;;;1.42;79.95
79067;BME280;68470;50.224;14.348;2023-03-08T05:28:41;97828.97;;;1.40;80.63
79067;BME280;68470;50.224;14.348;2023-03-08T05:31:11;97821.22;;;1.32;81.88
79067;BME280;68470;50.224;14.348;2023-03-08T05:33:38;97831.25;;;1.32;81.66
79067;BME280;68470;50.224;14.348;2023-03-08T05:36:05;97833.63;;;1.28;81.66
79067;BME280;68470;50.224;14.348;2023-03-08T05:38:32;97836.34;;;1.28;81.73
79067;BME280;68470;50.224;14.348;2023-03-08T05:41:00;97826.06;;;1.30;80.94
79067;BME280;68470;50.224;14.348;2023-03-08T05:43:26;97844.25;;;1.46;80.47
79067;BME280;68470;50.224;14.348;2023-03-08T05:45:55;97851.06;;;1.32;80.75
79067;BME280;68470;50.224;14.348;2023-03-08T05:48:21;97853.19;;;1.30;80.60
79067;BME280;68470;50.224;14.348;2023-03-08T05:50:47;97834.69;;;1.27;80.55
79067;BME280;68470;50.224;14.348;2023-03-08T05:53:13;97849.41;;;1.31;80.05
79067;BME280;68470;50.224;14.348;2023-03-08T05:55:38;97836.00;;;1.25;80.26
79067;BME280;68470;50.224;14.348;2023-03-08T05:58:05;97843.91;;;1.26;81.30
79067;BME280;68470;50.224;14.348;2023-03-08T06:00:30;97856.38;;;1.27;81.15
79067;BME280;68470;50.224;14.348;2023-03-08T06:02:59;97856.38;;;1.27;82.48
79067;BME280;68470;50.224;14.348;2023-03-08T06:05:29;97853.75;;;1.32;82.42
79067;BME280;68470;50.224;14.348;2023-03-08T06:07:55;97850.09;;;1.38;81.44
79067;BME280;68470;50.224;14.348;2023-03-08T06:10:20;97839.53;;;1.54;80.25
79067;BME280;68470;50.224;14.348;2023-03-08T06:12:46;97841.81;;;1.62;80.08
79067;BME280;68470;50.224;14.348;2023-03-08T06:15:12;97852.28;;;1.70;79.72
79067;BME280;68470;50.224;14.348;2023-03-08T06:17:39;97840.00;;;1.67;79.39
79067;BME280;68470;50.224;14.348;2023-03-08T06:20:06;97842.00;;;1.72;79.49
79067;BME280;68470;50.224;14.348;2023-03-08T06:22:32;97842.91;;;1.77;77.53
79067;BME280;68470;50.224;14.348;2023-03-08T06:24:58;97834.94;;;1.71;76.94
79067;BME280;68470;50.224;14.348;2023-03-08T06:27:24;97839.19;;;1.84;76.99
79067;BME280;68470;50.224;14.348;2023-03-08T06:29:50;97836.31;;;1.90;76.25
79067;BME280;68470;50.224;14.348;2023-03-08T06:32:17;97835.81;;;1.93;76.02
79067;BME280;68470;50.224;14.348;2023-03-08T06:34:43;97825.28;;;1.97;76.64
79067;BME280;68470;50.224;14.348;2023-03-08T06:37:10;97817.41;;;1.95;75.97
79067;BME280;68470;50.224;14.348;2023-03-08T06:39:35;97819.59;;;2.15;75.34
79067;BME280;68470;50.224;14.348;2023-03-08T06:42:01;97820.72;;;2.36;74.50
79067;BME280;68470;50.224;14.348;2023-03-08T06:44:28;97817.56;;;2.44;74.22
79067;BME280;68470;50.224;14.348;2023-03-08T06:46:55;97834.47;;;2.51;74.14
79067;BME280;68470;50.224;14.348;2023-03-08T06:49:21;97836.25;;;2.40;74.89
79067;BME280;68470;50.224;14.348;2023-03-08T06:51:48;97837.78;;;2.53;73.97
79067;BME280;68470;50.224;14.348;2023-03-08T06:54:14;97821.72;;;2.52;73.44
79067;BME280;68470;50.224;14.348;2023-03-08T06:56:46;97830.16;;;2.72;72.77
79067;BME280;68470;50.224;14.348;2023-03-08T06:59:12;97838.53;;;2.92;72.47
79067;BME280;68470;50.224;14.348;2023-03-08T07:01:39;97840.97;;;2.89;72.15
79067;BME280;68470;50.224;14.348;2023-03-08T07:04:06;97838.66;;;2.81;72.38
79067;BME280;68470;50.224;14.348;2023-03-08T07:06:32;97839.38;;;2.71;72.73
79067;BME280;68470;50.224;14.348;2023-03-08T07:08:58;97841.19;;;2.65;73.21
79067;BME280;68470;50.224;14.348;2023-03-08T07:11:24;97824.56;;;2.40;72.56
79067;BME280;68470;50.224;14.348;2023-03-08T07:13:51;97828.97;;;2.46;73.15
79067;BME280;68470;50.224;14.348;2023-03-08T07:16:17;97832.00;;;2.50;73.11
79067;BME280;68470;50.224;14.348;2023-03-08T07:18:43;97833.34;;;2.47;73.03
79067;BME280;68470;50.224;14.348;2023-03-08T07:21:09;97842.88;;;2.50;72.67
79067;BME280;68470;50.224;14.348;2023-03-08T07:23:35;97837.59;;;2.60;73.01
79067;BME280;68470;50.224;14.348;2023-03-08T07:26:08;97838.97;;;2.62;72.88
79067;BME280;68470;50.224;14.348;2023-03-08T07:28:34;97833.03;;;2.65;73.00
79067;BME280;68470;50.224;14.348;2023-03-08T07:31:00;97833.75;;;2.78;72.66
79067;BME280;68470;50.224;14.348;2023-03-08T07:33:26;97830.25;;;2.82;71.67
79067;BME280;68470;50.224;14.348;2023-03-08T07:35:58;97828.31;;;2.78;72.59
79067;BME280;68470;50.224;14.348;2023-03-08T07:38:25;97830.91;;;2.89;72.57
79067;BME280;68470;50.224;14.348;2023-03-08T07:40:55;97832.84;;;2.94;72.39
79067;BME280;68470;50.224;14.348;2023-03-08T07:43:22;97829.66;;;3.02;71.30
79067;BME280;68470;50.224;14.348;2023-03-08T07:45:48;97818.78;;;3.02;70.67
79067;BME280;68470;50.224;14.348;2023-03-08T07:48:14;97834.94;;;3.09;70.77
